Terminal Aerodrome Forecast
Issued by NWS Raleigh/Durham, NC

Home | Current Version | Previous Version | Text Only | Print | Product List | Glossary On
Versions: 1 2 3 4 5 6 7 8 9 10 11 12 13 14 15 16 17 18
000
FTUS42 KRAH 061132
TAFGSO
TAF
KGSO 061132Z 0612/0712 07010KT 5SM -RA BR SCT005 SCT010 OVC020
      TEMPO 0612/0614 3SM -RA BR OVC007
     FM061400 05010KT 2SM -RA BR OVC004
      TEMPO 0616/0620 1SM -RA BR OVC004
     FM062100 04005KT 4SM -DZ BR OVC004
     FM070000 36002KT 2SM BR OVC004
     FM070600 34003KT 5SM BR SCT250=

USA.gov is the U.S. government's official web portal to all federal, state and local government web resources and services.